Time;durP1;ratioP1;P1;durP2;ratioP2;P2;SDS_P1;SDS_P2;PMS_P1;PMS_P2;Temp;Humidity;BMP_temperature;BMP_pressure;BME280_temperature;BME280_humidity;BME280_pressure;Samples;Min_cycle;Max_cycle;Signal;HPM_P1;HPM_P2
2022/12/10 00:01:12;;;;;;;271.80;251.07;;;1.50;30.10;;;;;;5061917;28;20176;-69
2022/12/10 00:03:38;;;;;;;156.32;140.90;;;1.50;30.10;;;;;;5060246;28;20420;-69
2022/12/10 00:06:07;;;;;;;271.40;250.50;;;1.50;30.10;;;;;;5062292;28;20216;-69
2022/12/10 00:08:34;;;;;;;134.05;108.82;;;1.60;29.90;;;;;;5061844;28;20171;-68
2022/12/10 00:11:02;;;;;;;292.13;268.05;;;1.60;29.50;;;;;;5062343;28;20182;-69
2022/12/10 00:13:27;;;;;;;235.13;214.70;;;1.50;29.70;;;;;;5061518;28;20620;-69
2022/12/10 00:15:53;;;;;;;206.27;187.93;;;1.50;29.50;;;;;;5062261;28;20200;-68
2022/12/10 00:18:18;;;;;;;164.87;148.60;;;1.50;30.00;;;;;;5062206;28;20221;-71
2022/12/10 00:20:44;;;;;;;238.20;217.80;;;1.50;30.00;;;;;;5062122;28;20182;-70
2022/12/10 00:23:10;;;;;;;140.00;124.57;;;1.50;30.00;;;;;;5062997;28;20182;-68
2022/12/10 00:25:35;;;;;;;436.47;404.57;;;1.50;29.70;;;;;;5061714;28;20236;-69
2022/12/10 00:28:01;;;;;;;458.73;425.83;;;1.40;30.00;;;;;;5061741;28;20187;-69
2022/12/10 00:30:26;;;;;;;326.80;301.27;;;1.30;30.70;;;;;;5062235;28;20585;-69
2022/12/10 00:32:52;;;;;;;191.87;173.90;;;1.20;31.20;;;;;;5061881;28;20178;-69
2022/12/10 00:35:18;;;;;;;252.93;232.50;;;1.20;32.10;;;;;;5061986;28;20223;-69
2022/12/10 00:37:43;;;;;;;400.80;371.33;;;1.30;31.90;;;;;;5060424;28;20255;-68
2022/12/10 00:40:12;;;;;;;150.33;134.10;;;1.20;31.40;;;;;;5064685;28;20171;-69
2022/12/10 00:42:37;;;;;;;534.97;497.13;;;1.20;32.50;;;;;;5065850;28;20229;-69
2022/12/10 00:45:04;;;;;;;154.37;138.67;;;1.20;31.80;;;;;;5066122;28;20167;-69
2022/12/10 00:47:30;;;;;;;218.88;199.63;;;1.20;32.50;;;;;;5065673;28;20304;-69
2022/12/10 00:49:55;;;;;;;274.73;252.77;;;1.30;32.90;;;;;;5065951;28;20178;-69
2022/12/10 00:52:21;;;;;;;227.33;208.50;;;1.30;32.40;;;;;;5065154;28;20193;-69
2022/12/10 00:54:46;;;;;;;158.40;142.43;;;1.40;32.10;;;;;;5065606;28;20659;-69
2022/12/10 00:57:12;;;;;;;240.17;220.80;;;1.40;31.70;;;;;;5065805;28;20264;-68
2022/12/10 00:59:38;;;;;;;227.60;207.93;;;1.40;31.90;;;;;;5065408;28;20179;-69
2022/12/10 01:02:03;;;;;;;227.20;207.77;;;1.40;31.90;;;;;;5065675;28;20179;-69
2022/12/10 01:04:29;;;;;;;207.10;188.70;;;1.40;32.00;;;;;;5065144;28;20182;-69
2022/12/10 01:06:54;;;;;;;206.87;187.83;;;1.40;31.90;;;;;;5065980;28;20207;-69
2022/12/10 01:09:26;;;;;;;263.07;240.93;;;1.50;32.10;;;;;;5065898;28;20205;-70
2022/12/10 01:11:54;;;;;;;147.68;131.70;;;1.40;31.40;;;;;;5065289;28;20269;-69
2022/12/10 01:14:26;;;;;;;149.60;133.85;;;1.30;33.40;;;;;;5063951;28;20207;-69
2022/12/10 01:17:02;;;;;;;184.00;167.00;;;1.40;32.40;;;;;;5063924;28;20274;-69
2022/12/10 01:19:28;;;;;;;147.18;131.60;;;1.40;31.90;;;;;;5065918;28;20166;-69
2022/12/10 01:21:54;;;;;;;273.20;251.73;;;1.50;32.10;;;;;;5065405;28;20171;-69
2022/12/10 01:24:21;;;;;;;330.17;305.50;;;1.50;31.80;;;;;;5064576;28;20202;-69
2022/12/10 01:26:47;;;;;;;173.43;157.57;;;1.60;31.60;;;;;;5064116;28;20219;-70
2022/12/10 01:29:12;;;;;;;168.10;152.13;;;1.60;31.30;;;;;;5065030;28;20189;-69
2022/12/10 01:31:39;;;;;;;153.83;138.20;;;1.70;30.70;;;;;;5064909;28;20233;-69
2022/12/10 01:34:06;;;;;;;265.30;244.82;;;1.70;30.20;;;;;;5065163;28;20190;-70
2022/12/10 01:36:41;;;;;;;266.45;245.13;;;1.70;30.20;;;;;;5065402;28;20286;-69
2022/12/10 01:39:09;;;;;;;171.38;155.77;;;1.70;30.60;;;;;;5065262;28;20184;-68
2022/12/10 01:41:40;;;;;;;192.55;174.90;;;1.70;30.20;;;;;;5064439;28;20206;-69
2022/12/10 01:44:25;;;;;;;159.73;144.30;;;1.80;30.30;;;;;;5065756;28;20171;-68
2022/12/10 01:46:57;;;;;;;278.23;256.63;;;1.90;29.50;;;;;;5063568;28;20205;-68
2022/12/10 01:49:31;;;;;;;326.27;300.40;;;1.90;29.70;;;;;;5063635;28;20206;-69
2022/12/10 01:51:56;;;;;;;361.10;334.50;;;1.80;29.80;;;;;;5063402;28;20200;-70
2022/12/10 01:54:32;;;;;;;610.57;567.63;;;1.70;30.00;;;;;;5065141;28;20222;-69
2022/12/10 01:57:10;;;;;;;228.50;209.80;;;1.60;30.10;;;;;;5063705;28;20234;-69
2022/12/10 01:59:37;;;;;;;218.88;200.95;;;1.70;30.30;;;;;;5064811;28;20167;-68
2022/12/10 02:02:06;;;;;;;306.98;283.13;;;1.60;30.00;;;;;;5064532;28;20175;-70
2022/12/10 02:04:39;;;;;;;163.00;148.15;;;1.70;30.20;;;;;;5066513;28;20177;-69
2022/12/10 02:07:26;;;;;;;161.95;147.25;;;1.80;30.00;;;;;;5065249;28;20208;-69
2022/12/10 02:10:00;;;;;;;223.90;205.27;;;1.80;29.50;;;;;;5064664;28;20235;-68
2022/12/10 02:12:36;;;;;;;419.98;390.48;;;1.80;29.50;;;;;;5062598;28;20647;-69
2022/12/10 02:15:08;;;;;;;165.13;148.68;;;1.80;29.70;;;;;;5064166;28;20182;-69
2022/12/10 02:17:33;;;;;;;275.88;254.77;;;1.80;29.10;;;;;;5064164;28;20800;-68
2022/12/10 02:20:06;;;;;;;164.43;148.80;;;1.70;29.70;;;;;;5062737;28;20229;-69
2022/12/10 02:22:38;;;;;;;167.38;152.23;;;1.70;29.90;;;;;;5064260;28;20527;-69
2022/12/10 02:25:05;;;;;;;283.65;262.15;;;1.80;29.80;;;;;;5064097;28;20168;-69
2022/12/10 02:27:40;;;;;;;171.50;155.30;;;1.90;29.00;;;;;;5064124;28;20218;-69
2022/12/10 02:30:06;;;;;;;186.98;171.05;;;1.90;29.30;;;;;;5064336;28;20179;-69
2022/12/10 02:32:36;;;;;;;240.63;220.35;;;1.90;29.60;;;;;;5064037;28;20178;-69
2022/12/10 02:35:06;;;;;;;298.95;274.27;;;1.80;29.00;;;;;;5064111;28;20183;-69
2022/12/10 02:37:36;;;;;;;137.70;120.35;;;1.60;30.10;;;;;;5063552;28;20584;-69
2022/12/10 02:40:07;;;;;;;299.15;275.58;;;1.60;30.70;;;;;;5062914;28;20175;-69
2022/12/10 02:42:37;;;;;;;163.13;147.30;;;1.60;30.30;;;;;;5064123;28;20246;-69
2022/12/10 02:45:05;;;;;;;154.65;139.50;;;1.60;31.40;;;;;;5063550;28;20190;-70
2022/12/10 02:47:31;;;;;;;478.77;444.63;;;1.60;31.00;;;;;;5063063;28;20210;-69
2022/12/10 02:49:58;;;;;;;321.85;297.17;;;1.60;31.00;;;;;;5064305;28;20169;-68
2022/12/10 02:52:25;;;;;;;507.98;470.75;;;1.50;30.70;;;;;;5063549;28;20205;-69
2022/12/10 02:54:51;;;;;;;430.13;398.73;;;1.40;31.60;;;;;;5064079;28;20183;-70
2022/12/10 02:57:37;;;;;;;234.75;215.52;;;1.40;32.10;;;;;;5064039;28;20243;-69
2022/12/10 03:00:06;;;;;;;237.50;217.18;;;1.40;33.10;;;;;;5064266;28;20175;-69
2022/12/10 03:02:46;;;;;;;287.85;265.80;;;1.40;33.20;;;;;;5062229;28;20203;-68
2022/12/10 03:05:22;;;;;;;247.25;227.27;;;1.30;33.20;;;;;;5064010;28;20392;-68
2022/12/10 03:08:02;;;;;;;181.93;165.43;;;1.30;33.90;;;;;;5062257;28;20202;-68
2022/12/10 03:10:56;;;;;;;216.45;195.27;;;1.30;34.40;;;;;;5063712;28;20213;-68
2022/12/10 03:13:29;;;;;;;150.75;134.88;;;1.30;34.00;;;;;;5060996;28;20471;-68
2022/12/10 03:15:55;;;;;;;177.07;159.90;;;1.40;35.10;;;;;;5061882;28;20199;-68
2022/12/10 03:18:25;;;;;;;327.45;300.25;;;1.50;34.00;;;;;;5061797;28;20561;-68
2022/12/10 03:20:52;;;;;;;150.90;120.97;;;1.40;34.10;;;;;;5062651;28;20170;-68
2022/12/10 03:23:19;;;;;;;314.80;289.00;;;1.40;35.20;;;;;;5061714;28;20190;-69
2022/12/10 03:25:48;;;;;;;493.27;458.05;;;1.40;35.10;;;;;;5062998;28;20251;-68
2022/12/10 03:28:15;;;;;;;176.75;157.52;;;1.30;35.00;;;;;;5061134;28;20182;-69
2022/12/10 03:30:41;;;;;;;234.65;212.75;;;1.30;36.00;;;;;;5062367;28;20178;-69
2022/12/10 03:33:07;;;;;;;158.75;127.55;;;1.30;35.30;;;;;;5062895;28;20182;-68
2022/12/10 03:35:33;;;;;;;276.23;252.80;;;1.30;36.40;;;;;;5062004;28;20179;-69
2022/12/10 03:37:59;;;;;;;324.17;296.47;;;1.30;36.50;;;;;;5059948;28;20449;-68
2022/12/10 03:40:26;;;;;;;613.27;571.10;;;1.40;36.00;;;;;;5061286;28;20425;-69
2022/12/10 03:42:51;;;;;;;214.30;194.38;;;1.30;36.00;;;;;;5062903;28;20184;-69
2022/12/10 03:45:17;;;;;;;387.47;356.83;;;1.30;35.70;;;;;;5062779;28;20179;-69
2022/12/10 03:47:43;;;;;;;270.17;247.33;;;1.30;36.40;;;;;;5063379;28;20234;-68
2022/12/10 03:50:09;;;;;;;223.60;203.35;;;1.30;36.40;;;;;;5062269;28;20171;-69
2022/12/10 03:52:35;;;;;;;562.78;521.30;;;1.30;36.70;;;;;;5062158;28;20181;-68
2022/12/10 03:55:01;;;;;;;403.33;371.17;;;1.30;36.60;;;;;;5062291;28;20238;-69
2022/12/10 03:57:26;;;;;;;193.23;175.48;;;1.30;36.60;;;;;;5062818;28;20206;-68
2022/12/10 03:59:52;;;;;;;408.07;376.10;;;1.30;36.40;;;;;;5062506;28;20200;-69
2022/12/10 04:02:18;;;;;;;380.60;352.47;;;1.20;37.10;;;;;;5061488;28;20191;-69
2022/12/10 04:04:43;;;;;;;182.93;165.97;;;1.30;37.30;;;;;;5062207;28;20190;-69
2022/12/10 04:07:09;;;;;;;317.40;292.23;;;1.40;35.90;;;;;;5062738;28;20230;-68
2022/12/10 04:09:34;;;;;;;219.17;199.87;;;1.40;36.20;;;;;;5061127;28;20179;-68
2022/12/10 04:12:00;;;;;;;304.23;280.43;;;1.50;36.70;;;;;;5061289;28;20209;-69
2022/12/10 04:17:11;;;;;;;170.77;153.82;;;1.40;35.50;;;;;;5061296;28;20701;-69
2022/12/10 04:19:37;;;;;;;211.25;192.65;;;1.40;35.10;;;;;;5060817;28;20179;-68
2022/12/10 04:27:38;;;;;;;262.75;241.50;;;1.50;35.20;;;;;;5061651;28;20222;-68
2022/12/10 04:30:05;;;;;;;370.27;343.10;;;1.60;35.30;;;;;;5062210;28;20192;-67
2022/12/10 04:32:31;;;;;;;466.13;432.83;;;1.60;35.30;;;;;;5060999;28;20297;-68
2022/12/10 04:34:57;;;;;;;235.50;216.07;;;1.50;35.30;;;;;;5060802;28;20555;-68
2022/12/10 04:37:23;;;;;;;236.50;216.63;;;1.40;35.10;;;;;;5061396;28;20265;-68
2022/12/10 04:39:50;;;;;;;347.80;321.92;;;1.40;35.10;;;;;;5061812;28;20421;-68
2022/12/10 04:42:16;;;;;;;195.32;177.38;;;1.30;35.00;;;;;;5061292;28;20629;-67
2022/12/10 04:44:41;;;;;;;189.80;172.00;;;1.40;36.60;;;;;;5061624;28;20193;-68
2022/12/10 04:47:09;;;;;;;240.13;219.93;;;1.50;35.30;;;;;;5059803;28;20195;-68
2022/12/10 04:49:35;;;;;;;167.52;150.73;;;1.50;35.20;;;;;;5061432;28;20175;-68
2022/12/10 04:52:00;;;;;;;212.20;195.13;;;1.60;34.70;;;;;;5059797;28;20186;-68
2022/12/10 04:54:27;;;;;;;230.03;210.90;;;1.70;35.00;;;;;;5061266;28;20185;-69
2022/12/10 04:56:52;;;;;;;274.13;253.23;;;1.70;32.60;;;;;;5060801;28;20205;-68
2022/12/10 04:59:18;;;;;;;209.00;191.17;;;1.70;33.60;;;;;;5061441;28;20167;-69
2022/12/10 05:01:44;;;;;;;431.60;399.95;;;1.70;33.70;;;;;;5060763;28;20167;-68
2022/12/10 05:04:13;;;;;;;163.77;147.87;;;1.70;33.10;;;;;;5060060;28;20211;-69
2022/12/10 05:06:39;;;;;;;448.48;415.20;;;1.60;33.10;;;;;;5061744;28;20270;-69
2022/12/10 05:09:05;;;;;;;217.02;198.80;;;1.60;31.70;;;;;;5060807;28;20182;-68
2022/12/10 05:11:32;;;;;;;188.38;172.27;;;1.60;31.90;;;;;;5061224;28;20183;-67
2022/12/10 05:13:58;;;;;;;182.68;166.65;;;1.50;33.00;;;;;;5059551;28;20239;-68
2022/12/10 05:16:26;;;;;;;360.03;332.87;;;1.60;33.60;;;;;;5061305;28;20241;-68
2022/12/10 05:18:53;;;;;;;183.55;166.75;;;1.60;33.00;;;;;;5061775;28;20668;-68
2022/12/10 05:21:20;;;;;;;183.00;166.73;;;1.70;33.00;;;;;;5062184;28;20710;-67
2022/12/10 05:23:48;;;;;;;222.32;204.45;;;1.70;32.60;;;;;;5059697;28;20175;-69
2022/12/10 05:26:22;;;;;;;182.52;165.60;;;1.80;32.40;;;;;;5087722;22;20242;-70
2022/12/10 05:28:53;;;;;;;201.85;183.25;;;1.80;32.10;;;;;;5074921;28;20204;-70
2022/12/10 05:31:26;;;;;;;469.10;434.77;;;1.90;31.40;;;;;;5074686;28;20644;-70
2022/12/10 05:33:52;;;;;;;165.70;150.52;;;1.90;30.60;;;;;;5090127;28;20225;-70
2022/12/10 05:36:21;;;;;;;204.88;188.02;;;1.80;30.90;;;;;;5074640;28;20203;-70
2022/12/10 05:38:47;;;;;;;392.48;363.25;;;1.70;30.60;;;;;;5074739;28;20235;-69
2022/12/10 05:41:16;;;;;;;293.55;270.92;;;1.70;31.00;;;;;;5074542;28;20301;-70
2022/12/10 05:43:43;;;;;;;175.05;158.93;;;1.60;32.10;;;;;;5090099;28;20181;-70
2022/12/10 05:46:29;;;;;;;163.98;148.75;;;1.60;32.40;;;;;;5074484;28;20170;-70
2022/12/10 05:48:56;;;;;;;483.92;448.13;;;1.60;32.30;;;;;;5090131;28;20649;-70
2022/12/10 05:51:27;;;;;;;167.73;151.70;;;1.60;32.10;;;;;;5074202;28;20182;-70
2022/12/10 05:53:54;;;;;;;138.13;120.22;;;1.70;32.50;;;;;;5090226;28;20619;-70
2022/12/10 05:56:22;;;;;;;168.10;152.65;;;1.60;32.80;;;;;;5074206;28;20602;-70
2022/12/10 05:58:50;;;;;;;192.55;175.65;;;1.70;31.90;;;;;;5074142;28;20546;-70
2022/12/10 06:01:18;;;;;;;293.73;271.33;;;1.60;32.50;;;;;;5074084;28;20572;-70
2022/12/10 06:03:44;;;;;;;184.48;167.45;;;1.60;32.20;;;;;;5073960;28;20756;-70
2022/12/10 06:06:10;;;;;;;217.53;199.60;;;1.60;32.40;;;;;;5089674;28;20214;-70
2022/12/10 06:08:36;;;;;;;222.63;202.95;;;1.60;32.60;;;;;;5074092;28;20185;-70
2022/12/10 06:11:03;;;;;;;172.15;155.82;;;1.60;31.80;;;;;;5073952;28;20225;-70
2022/12/10 06:13:29;;;;;;;219.18;200.77;;;1.60;32.80;;;;;;5089326;28;20682;-70
2022/12/10 06:15:54;;;;;;;153.93;138.50;;;1.60;32.80;;;;;;5073970;28;20179;-70
2022/12/10 06:18:20;;;;;;;133.17;115.83;;;1.60;33.30;;;;;;5073665;28;20217;-70
2022/12/10 06:20:46;;;;;;;183.88;167.55;;;1.60;33.30;;;;;;5073736;28;20478;-70
2022/12/10 06:23:12;;;;;;;401.37;370.87;;;1.80;32.20;;;;;;5073721;28;20330;-70
2022/12/10 06:25:39;;;;;;;469.37;436.40;;;1.70;31.50;;;;;;5073754;28;20408;-70
2022/12/10 06:28:05;;;;;;;407.80;378.63;;;1.60;32.40;;;;;;5073594;28;20683;-70
2022/12/10 06:30:31;;;;;;;391.25;363.42;;;1.60;33.10;;;;;;5073704;28;20180;-70
2022/12/10 06:32:57;;;;;;;191.83;173.83;;;1.50;33.10;;;;;;5073507;28;20178;-70
2022/12/10 06:35:22;;;;;;;538.13;499.97;;;1.60;33.50;;;;;;5073536;28;20412;-70
2022/12/10 06:37:49;;;;;;;394.00;363.73;;;1.50;32.60;;;;;;5073403;28;20236;-69
2022/12/10 06:40:15;;;;;;;194.93;176.73;;;1.40;34.20;;;;;;5088868;28;20537;-69
2022/12/10 06:42:41;;;;;;;465.97;430.70;;;1.30;35.00;;;;;;5073172;28;20174;-70
2022/12/10 06:45:07;;;;;;;407.77;379.17;;;1.30;35.00;;;;;;5073396;28;20458;-70
2022/12/10 06:47:33;;;;;;;496.05;460.70;;;1.20;35.00;;;;;;5073179;28;20239;-69
2022/12/10 06:49:58;;;;;;;388.37;358.03;;;1.20;36.20;;;;;;5088910;28;20202;-70
2022/12/10 06:52:24;;;;;;;362.93;335.77;;;1.20;36.70;;;;;;5073172;28;20254;-70
2022/12/10 06:54:50;;;;;;;429.20;399.13;;;1.10;36.10;;;;;;5073258;28;20174;-69
2022/12/10 06:57:16;;;;;;;226.57;207.03;;;1.00;37.00;;;;;;5088513;28;20487;-70
2022/12/10 06:59:41;;;;;;;220.73;202.03;;;1.00;37.90;;;;;;5073113;28;20753;-69
2022/12/10 07:02:10;;;;;;;309.83;284.90;;;1.10;38.60;;;;;;5072773;28;20170;-69
2022/12/10 07:04:36;;;;;;;322.02;297.60;;;1.20;37.50;;;;;;5072997;28;20187;-70
2022/12/10 07:07:02;;;;;;;177.43;159.23;;;1.20;36.30;;;;;;5072760;28;20242;-69
2022/12/10 07:09:27;;;;;;;439.30;405.20;;;1.20;36.70;;;;;;5072691;28;20265;-69
2022/12/10 07:11:53;;;;;;;434.03;402.30;;;1.20;36.10;;;;;;5072475;28;20588;-69
2022/12/10 07:14:18;;;;;;;467.97;433.80;;;1.10;35.90;;;;;;5072740;28;20178;-69
2022/12/10 07:16:44;;;;;;;512.53;475.80;;;0.90;36.30;;;;;;5072367;28;20256;-69
2022/12/10 07:19:11;;;;;;;367.93;340.20;;;0.90;36.80;;;;;;5088534;28;20181;-69
2022/12/10 07:21:40;;;;;;;554.38;514.35;;;0.80;36.80;;;;;;5087946;28;20654;-69
2022/12/10 07:24:17;;;;;;;348.15;320.85;;;0.80;37.10;;;;;;5072646;28;20674;-68
2022/12/10 07:26:44;;;;;;;268.95;245.88;;;0.90;36.90;;;;;;5072307;28;20240;-69
2022/12/10 07:29:14;;;;;;;161.80;144.98;;;0.90;36.40;;;;;;5072562;28;20181;-69
2022/12/10 07:31:40;;;;;;;499.92;465.50;;;1.00;36.40;;;;;;5072269;28;20170;-69
2022/12/10 07:34:06;;;;;;;183.32;162.20;;;0.90;35.60;;;;;;5072493;28;20281;-69
2022/12/10 07:36:32;;;;;;;238.83;219.20;;;0.90;35.80;;;;;;5072360;28;20204;-69
2022/12/10 07:38:57;;;;;;;156.30;138.30;;;1.00;35.20;;;;;;5072561;28;20205;-69
2022/12/10 07:41:24;;;;;;;289.50;266.87;;;1.00;35.40;;;;;;5072413;28;20658;-70
2022/12/10 07:43:50;;;;;;;147.20;124.38;;;1.00;35.30;;;;;;5072287;28;20174;-70
2022/12/10 07:46:21;;;;;;;237.20;216.43;;;1.10;34.90;;;;;;5070988;28;20198;-70
2022/12/10 07:48:48;;;;;;;222.32;203.00;;;1.10;34.90;;;;;;5071715;28;20712;-69
2022/12/10 07:51:15;;;;;;;429.30;398.15;;;1.20;35.00;;;;;;5087884;28;20261;-69
2022/12/10 07:53:42;;;;;;;237.55;217.25;;;1.20;35.00;;;;;;5087629;28;20174;-69
2022/12/10 07:56:08;;;;;;;157.10;141.82;;;1.30;34.40;;;;;;5072112;28;20223;-69
2022/12/10 07:58:34;;;;;;;235.18;215.88;;;1.20;33.80;;;;;;5072315;28;20185;-70
2022/12/10 08:01:07;;;;;;;138.83;124.33;;;1.30;32.90;;;;;;5071891;28;20170;-70
2022/12/10 08:03:32;;;;;;;546.40;508.70;;;1.40;33.10;;;;;;5071885;28;20166;-70
2022/12/10 08:06:08;;;;;;;463.40;431.60;;;1.50;32.10;;;;;;5087573;28;20171;-70
2022/12/10 08:08:35;;;;;;;254.02;233.13;;;1.40;31.90;;;;;;5087449;28;20167;-70
2022/12/10 08:11:02;;;;;;;276.23;253.57;;;1.30;31.90;;;;;;5072388;28;20175;-69
2022/12/10 08:13:29;;;;;;;417.80;387.48;;;1.40;32.90;;;;;;5071854;28;20648;-69
2022/12/10 08:16:00;;;;;;;320.73;296.88;;;1.30;31.80;;;;;;5087317;28;20182;-70
2022/12/10 08:18:25;;;;;;;189.50;172.95;;;1.30;32.40;;;;;;5071786;28;20599;-69
2022/12/10 08:20:51;;;;;;;173.30;157.73;;;1.40;32.30;;;;;;5071942;28;20166;-71
2022/12/10 08:23:16;;;;;;;397.10;367.00;;;1.50;31.50;;;;;;5071620;28;20233;-71
2022/12/10 08:25:42;;;;;;;198.93;182.60;;;1.60;30.80;;;;;;5071710;28;20251;-71
2022/12/10 08:28:08;;;;;;;124.80;110.50;;;1.60;30.10;;;;;;5087280;28;20310;-69
2022/12/10 08:30:34;;;;;;;375.52;348.80;;;1.70;30.40;;;;;;5071844;28;20700;-70
2022/12/10 08:33:00;;;;;;;168.60;153.40;;;1.70;29.30;;;;;;5071702;28;20182;-72
2022/12/10 08:35:26;;;;;;;195.93;179.10;;;1.60;29.10;;;;;;5072605;28;20913;-72
2022/12/10 08:37:51;;;;;;;214.93;197.10;;;1.50;29.60;;;;;;5071104;28;20709;-71
2022/12/10 08:40:17;;;;;;;165.27;149.20;;;1.40;29.90;;;;;;5071530;28;20695;-71
2022/12/10 08:42:42;;;;;;;377.53;349.27;;;1.40;29.50;;;;;;5087564;28;20182;-71
2022/12/10 08:45:09;;;;;;;441.87;409.57;;;1.40;30.00;;;;;;5071497;28;20197;-71
2022/12/10 08:47:34;;;;;;;344.70;317.42;;;1.30;30.00;;;;;;5086981;28;20230;-71
2022/12/10 08:50:00;;;;;;;367.43;340.07;;;1.20;29.70;;;;;;5071535;28;20206;-71
2022/12/10 08:52:25;;;;;;;226.67;207.20;;;1.20;29.90;;;;;;5086784;28;20255;-71
2022/12/10 08:54:51;;;;;;;124.17;104.67;;;1.20;29.90;;;;;;5071389;28;20189;-69
2022/12/10 08:57:16;;;;;;;144.90;131.03;;;1.30;30.10;;;;;;5071295;28;20334;-70
2022/12/10 08:59:42;;;;;;;172.33;155.03;;;1.30;30.00;;;;;;5071310;28;20694;-70
2022/12/10 09:02:10;;;;;;;123.60;110.03;;;1.50;29.90;;;;;;5073296;28;20711;-69
2022/12/10 09:04:36;;;;;;;183.18;166.57;;;1.50;30.00;;;;;;5075622;28;20671;-70
2022/12/10 09:07:03;;;;;;;296.40;272.83;;;1.70;28.70;;;;;;5075545;28;20234;-70
2022/12/10 09:09:28;;;;;;;504.23;469.55;;;1.60;28.60;;;;;;5090713;28;20428;-70
2022/12/10 09:11:54;;;;;;;136.70;122.43;;;1.60;28.60;;;;;;5075032;28;20174;-70
2022/12/10 09:14:19;;;;;;;270.37;249.00;;;1.70;28.50;;;;;;5074827;28;20655;-70
2022/12/10 09:16:45;;;;;;;201.17;184.20;;;1.80;28.40;;;;;;5074720;28;20579;-70
2022/12/10 09:19:11;;;;;;;309.03;285.50;;;1.80;28.40;;;;;;5090571;28;20612;-69
2022/12/10 09:21:36;;;;;;;179.07;163.53;;;1.90;27.90;;;;;;5074527;28;20185;-70
2022/12/10 09:24:02;;;;;;;377.67;352.87;;;1.90;27.20;;;;;;5090369;28;20178;-70
2022/12/10 09:26:27;;;;;;;131.90;109.80;;;1.90;27.10;;;;;;5074575;28;20205;-70
2022/12/10 09:28:54;;;;;;;224.90;206.53;;;1.90;27.40;;;;;;5073606;28;20185;-70
2022/12/10 09:31:20;;;;;;;475.13;440.45;;;2.10;26.50;;;;;;5074887;28;20167;-70
2022/12/10 09:33:47;;;;;;;278.85;258.52;;;2.20;26.40;;;;;;5074676;28;20548;-70
2022/12/10 09:36:14;;;;;;;376.83;349.05;;;2.10;25.80;;;;;;5074658;28;20341;-70
2022/12/10 09:38:42;;;;;;;244.98;225.65;;;2.00;25.90;;;;;;5090360;28;20176;-71
2022/12/10 09:41:10;;;;;;;176.70;161.50;;;1.80;26.30;;;;;;5074827;28;20276;-71
2022/12/10 09:43:46;;;;;;;265.58;244.77;;;1.80;26.30;;;;;;5075011;28;20167;-71
2022/12/10 09:46:35;;;;;;;267.13;245.70;;;2.00;26.50;;;;;;5075535;28;20193;-71
2022/12/10 09:49:37;;;;;;;465.42;431.42;;;1.90;26.00;;;;;;5074466;28;20217;-72
2022/12/10 09:52:05;;;;;;;189.95;173.38;;;1.90;26.40;;;;;;5074191;28;20170;-71
2022/12/10 09:54:40;;;;;;;470.27;438.23;;;1.90;25.80;;;;;;5090112;28;20183;-71
2022/12/10 09:57:11;;;;;;;386.42;359.50;;;2.00;25.90;;;;;;5074083;28;20234;-71
2022/12/10 09:59:46;;;;;;;201.85;185.43;;;2.00;25.60;;;;;;5089850;28;20192;-71
2022/12/10 10:02:26;;;;;;;238.15;218.48;;;2.20;25.00;;;;;;5089643;28;20331;-71
2022/12/10 10:05:09;;;;;;;199.70;181.77;;;2.30;24.60;;;;;;5074168;28;20205;-71
2022/12/10 10:07:41;;;;;;;393.80;366.15;;;2.30;23.60;;;;;;5074459;28;20212;-70
2022/12/10 10:10:21;;;;;;;300.60;277.83;;;2.30;23.20;;;;;;5074113;28;20591;-70
2022/12/10 10:12:48;;;;;;;439.30;407.65;;;2.30;22.60;;;;;;5088708;28;20233;-71
2022/12/10 10:15:18;;;;;;;450.23;418.92;;;2.10;23.20;;;;;;5074163;28;20184;-71
2022/12/10 10:17:46;;;;;;;228.70;210.00;;;2.10;24.10;;;;;;5073734;28;20194;-71
2022/12/10 10:20:13;;;;;;;377.70;351.40;;;2.00;23.70;;;;;;5073879;28;20674;-71
2022/12/10 10:22:40;;;;;;;174.27;158.75;;;2.00;24.10;;;;;;5073397;28;20195;-71
2022/12/10 10:25:13;;;;;;;277.13;256.33;;;2.20;23.60;;;;;;5073779;28;20179;-71
2022/12/10 10:27:39;;;;;;;287.20;265.85;;;2.20;23.50;;;;;;5089041;28;20652;-71
2022/12/10 10:30:07;;;;;;;259.23;238.57;;;2.30;22.60;;;;;;5089321;28;20206;-71
2022/12/10 10:32:35;;;;;;;102.15;65.68;;;2.30;23.40;;;;;;5072118;28;20659;-69
2022/12/10 10:35:02;;;;;;;264.23;243.20;;;2.60;23.00;;;;;;5073665;28;20182;-69
2022/12/10 10:37:29;;;;;;;432.33;403.10;;;2.70;22.80;;;;;;5073413;28;20298;-70
2022/12/10 10:39:56;;;;;;;193.32;177.55;;;2.70;22.50;;;;;;5073473;28;20269;-70
2022/12/10 10:42:36;;;;;;;327.23;302.35;;;2.90;21.90;;;;;;5073068;28;20187;-70
2022/12/10 10:45:22;;;;;;;181.57;165.77;;;2.90;20.60;;;;;;5073119;28;20190;-70
2022/12/10 10:48:10;;;;;;;210.85;193.05;;;2.80;20.90;;;;;;5072895;28;20195;-70
2022/12/10 10:50:42;;;;;;;257.83;237.20;;;2.70;21.40;;;;;;5073226;28;20557;-70
2022/12/10 10:53:28;;;;;;;484.58;449.73;;;2.80;21.60;;;;;;5072918;28;20179;-69
2022/12/10 10:56:20;;;;;;;306.48;283.90;;;2.90;21.30;;;;;;5073075;28;20221;-70
2022/12/10 10:59:27;;;;;;;144.88;130.80;;;2.70;20.30;;;;;;5069664;28;20668;-70
2022/12/10 11:01:55;;;;;;;109.38;85.80;;;2.50;21.30;;;;;;5060374;28;20204;-70
2022/12/10 11:04:29;;;;;;;490.95;457.73;;;2.70;21.40;;;;;;5072992;28;20171;-70
2022/12/10 11:06:59;;;;;;;174.80;158.13;;;2.70;19.90;;;;;;5072887;28;20188;-70
2022/12/10 11:09:28;;;;;;;271.27;250.77;;;2.70;20.20;;;;;;5088472;28;20212;-70
2022/12/10 11:12:03;;;;;;;250.32;230.00;;;2.70;20.90;;;;;;5088373;28;20180;-70
2022/12/10 11:14:45;;;;;;;215.52;198.50;;;2.80;20.20;;;;;;5072779;28;20179;-70
2022/12/10 11:17:11;;;;;;;441.25;412.50;;;2.80;19.80;;;;;;5072533;28;20243;-70
2022/12/10 11:19:55;;;;;;;340.30;317.57;;;2.60;19.30;;;;;;5072627;28;20201;-70
2022/12/10 11:22:32;;;;;;;212.77;196.38;;;2.50;19.30;;;;;;5072348;28;20620;-70
2022/12/10 11:24:59;;;;;;;275.55;255.02;;;2.70;20.30;;;;;;5071690;28;20313;-70
2022/12/10 11:27:35;;;;;;;281.55;260.30;;;2.80;18.80;;;;;;5096311;22;20246;-70
2022/12/10 11:30:22;;;;;;;285.30;263.25;;;2.90;18.80;;;;;;5072609;28;20176;-71
2022/12/10 11:33:25;;;;;;;332.08;308.27;;;2.70;18.70;;;;;;5072148;28;20167;-72
2022/12/10 11:36:02;;;;;;;322.38;298.80;;;2.70;19.30;;;;;;5072436;28;20179;-70
2022/12/10 11:38:58;;;;;;;274.20;253.43;;;2.70;19.10;;;;;;5072233;28;20775;-70
2022/12/10 11:41:43;;;;;;;341.92;316.95;;;2.80;18.90;;;;;;5087822;28;20175;-71
2022/12/10 11:44:15;;;;;;;260.40;240.23;;;2.70;19.10;;;;;;5072390;28;20233;-73
2022/12/10 11:46:53;;;;;;;221.65;203.13;;;2.70;19.20;;;;;;5072294;28;20208;-71
2022/12/10 11:49:22;;;;;;;185.32;169.02;;;2.80;19.00;;;;;;5072299;28;20172;-72
2022/12/10 11:52:14;;;;;;;248.10;229.10;;;2.60;19.70;;;;;;5071859;28;20537;-71
2022/12/10 11:54:54;;;;;;;221.65;203.02;;;2.70;19.90;;;;;;5072207;28;20185;-71
2022/12/10 11:57:58;;;;;;;298.42;276.05;;;2.60;20.30;;;;;;5071967;28;20698;-71
2022/12/10 12:00:29;;;;;;;232.90;214.45;;;2.60;21.10;;;;;;5067860;28;20186;-71
2022/12/10 12:02:57;;;;;;;257.38;237.10;;;2.70;20.60;;;;;;5071818;28;20183;-71
2022/12/10 12:05:48;;;;;;;180.95;164.80;;;2.70;20.30;;;;;;5072009;28;20664;-72
2022/12/10 12:08:32;;;;;;;250.13;230.55;;;2.60;20.60;;;;;;5087327;28;20199;-70
2022/12/10 12:11:01;;;;;;;357.50;332.98;;;2.60;20.70;;;;;;5071875;28;20170;-71
2022/12/10 12:13:40;;;;;;;444.08;414.55;;;2.50;19.80;;;;;;5071713;28;20547;-72
2022/12/10 12:16:31;;;;;;;292.45;271.45;;;2.40;19.60;;;;;;5071916;28;20251;-71
2022/12/10 12:19:05;;;;;;;260.70;241.43;;;2.30;19.60;;;;;;5071913;28;20688;-70
2022/12/10 12:21:31;;;;;;;296.23;273.92;;;2.20;19.20;;;;;;5071744;28;20201;-72
2022/12/10 12:24:16;;;;;;;386.70;360.80;;;2.10;18.90;;;;;;5071756;28;20197;-71
2022/12/10 12:27:12;;;;;;;261.42;242.13;;;2.10;19.30;;;;;;5087147;28;20206;-71
2022/12/10 12:29:46;;;;;;;318.45;297.33;;;2.10;19.40;;;;;;5071730;28;20196;-72
2022/12/10 12:32:21;;;;;;;100.75;63.63;;;2.10;19.40;;;;;;5086984;28;20196;-71
2022/12/10 12:35:02;;;;;;;250.00;231.65;;;2.20;19.20;;;;;;5071765;28;20272;-71
2022/12/10 12:37:37;;;;;;;187.07;171.10;;;2.20;19.10;;;;;;5075817;28;20205;-73
2022/12/10 12:40:20;;;;;;;323.13;299.77;;;2.00;19.20;;;;;;5075761;28;20177;-70